Bodega Bay, California
Current Conditions -  °F | °C
As of 12:53 PM on Saturday 20 Dec 2014 (Local Time) from KSTS Reporting Station
Light Rain Light Rain  
Wind Chill: 55°   Ceiling: 400
Heat Index: 55°   Visibility: 1.5mi
Dew Point: 54°   Wind: 0mph
Humidity: 96%   Direction: NA
Pressure: 30.18"   Gusts: NA
Location:  38.32°N, 123.03°W
Report Text: KSTS 202053Z 00000KT 1 1/2SM -RA BR BKN004 OVC029 13/12 A3018 RMK AO2 SLP212 P0007 60008 T01280122 58003
Loading
Personal Weather Stations






























Interactive Weather Map New forecast layout! Learn more

10-Day Weather Forecast

Advertisements
Track Severe Weather on mobile